Destinations Naples International Airport

Naples International Airport (LIRN / NAP)

Flights to Naples International Airport

Flight number From ETE Dispatch
SPY-2500 EGPH Edinburgh Airport 03:35
SPY-4121 LGKR Ioannis Kapodistrias International Airport 01:30
SPY-4123 LICC Catania-Fontanarossa Airport 01:15
SPY-4125 LIME Il Caravaggio International Airport 01:35
SPY-4127 LIRP Pisa International Airport 01:20
SPY-4129 LDSP Split Airport 01:15
SPY-4131 LATI Tirana International Airport Mother Teresa 01:25

Flights from Naples International Airport

Flight number To ETE Dispatch
SPY-2501 EGPH Edinburgh Airport 03:35
SPY-4120 LGKR Ioannis Kapodistrias International Airport 01:25
SPY-4122 LICC Catania-Fontanarossa Airport 01:15
SPY-4124 LIME Il Caravaggio International Airport 01:40
SPY-4126 LIRP Pisa International Airport 01:25
SPY-4128 LDSP Split Airport 01:10
SPY-4130 LATI Tirana International Airport Mother Teresa 01:20
About

Naples International Airport facts

Naples International Airport is an operating base for Speedy Airlines, located in Naples at an elevation of 89.6 meters or 294 feet.

Currently, Speedy Airlines serves 14 flights to and from Naples International Airport.

Detailed airport info

Route map

Weather

Current weather

METAR

METAR

Metar data retrieved Sunday, 21 July 2024 at 18:55 UTC

LIRN 211820Z 14003KT 090V200 CAVOK 28/23 Q1011 NOSIG
Wind Temperature
3 kt 28c